sensor_id;sensor_type;location;lat;lon;timestamp;P1;durP1;ratioP1;P2;durP2;ratioP2
79047;SDS011;68680;50.764;6.120;2023-11-21T00:01:24;67.00;;;22.20;;
79047;SDS011;68680;50.764;6.120;2023-11-21T00:03:50;79.80;;;23.08;;
79047;SDS011;68680;50.764;6.120;2023-11-21T00:06:15;77.95;;;23.13;;
79047;SDS011;68680;50.764;6.120;2023-11-21T00:08:41;68.05;;;22.75;;
79047;SDS011;68680;50.764;6.120;2023-11-21T00:11:07;62.58;;;21.80;;
79047;SDS011;68680;50.764;6.120;2023-11-21T00:13:32;68.28;;;22.50;;
79047;SDS011;68680;50.764;6.120;2023-11-21T00:15:59;65.25;;;21.10;;
79047;SDS011;68680;50.764;6.120;2023-11-21T00:18:25;68.90;;;24.15;;
79047;SDS011;68680;50.764;6.120;2023-11-21T00:20:50;69.97;;;23.70;;
79047;SDS011;68680;50.764;6.120;2023-11-21T00:23:16;65.47;;;22.73;;
79047;SDS011;68680;50.764;6.120;2023-11-21T00:25:42;66.45;;;22.85;;
79047;SDS011;68680;50.764;6.120;2023-11-21T00:28:07;71.53;;;22.38;;
79047;SDS011;68680;50.764;6.120;2023-11-21T00:30:33;63.15;;;20.90;;
79047;SDS011;68680;50.764;6.120;2023-11-21T00:33:00;59.75;;;19.98;;
79047;SDS011;68680;50.764;6.120;2023-11-21T00:35:25;63.28;;;21.45;;
79047;SDS011;68680;50.764;6.120;2023-11-21T00:37:51;76.30;;;23.92;;
79047;SDS011;68680;50.764;6.120;2023-11-21T00:40:17;75.70;;;26.38;;
79047;SDS011;68680;50.764;6.120;2023-11-21T00:42:42;57.22;;;21.60;;
79047;SDS011;68680;50.764;6.120;2023-11-21T00:45:08;75.10;;;24.48;;
79047;SDS011;68680;50.764;6.120;2023-11-21T00:47:34;65.35;;;21.85;;
79047;SDS011;68680;50.764;6.120;2023-11-21T00:50:02;75.10;;;24.02;;
79047;SDS011;68680;50.764;6.120;2023-11-21T00:52:28;71.47;;;22.48;;
79047;SDS011;68680;50.764;6.120;2023-11-21T00:54:53;74.70;;;23.13;;
79047;SDS011;68680;50.764;6.120;2023-11-21T00:57:19;73.32;;;25.00;;
79047;SDS011;68680;50.764;6.120;2023-11-21T00:59:45;75.70;;;23.63;;
79047;SDS011;68680;50.764;6.120;2023-11-21T01:02:10;82.53;;;25.60;;
79047;SDS011;68680;50.764;6.120;2023-11-21T01:04:36;75.47;;;24.45;;
79047;SDS011;68680;50.764;6.120;2023-11-21T01:07:03;89.60;;;26.50;;
79047;SDS011;68680;50.764;6.120;2023-11-21T01:09:29;85.70;;;25.55;;
79047;SDS011;68680;50.764;6.120;2023-11-21T01:11:54;84.32;;;27.05;;
79047;SDS011;68680;50.764;6.120;2023-11-21T01:14:20;76.25;;;23.02;;
79047;SDS011;68680;50.764;6.120;2023-11-21T01:16:45;70.45;;;21.88;;
79047;SDS011;68680;50.764;6.120;2023-11-21T01:19:11;76.25;;;24.20;;
79047;SDS011;68680;50.764;6.120;2023-11-21T01:21:37;82.72;;;26.00;;
79047;SDS011;68680;50.764;6.120;2023-11-21T01:24:04;86.53;;;25.67;;
79047;SDS011;68680;50.764;6.120;2023-11-21T01:26:30;75.03;;;25.30;;
79047;SDS011;68680;50.764;6.120;2023-11-21T01:28:56;77.05;;;23.70;;
79047;SDS011;68680;50.764;6.120;2023-11-21T01:31:21;88.53;;;24.42;;
79047;SDS011;68680;50.764;6.120;2023-11-21T01:33:47;69.72;;;24.10;;
79047;SDS011;68680;50.764;6.120;2023-11-21T01:36:13;71.85;;;23.30;;
79047;SDS011;68680;50.764;6.120;2023-11-21T01:38:38;102.28;;;27.30;;
79047;SDS011;68680;50.764;6.120;2023-11-21T01:41:05;61.42;;;21.95;;
79047;SDS011;68680;50.764;6.120;2023-11-21T01:43:31;96.05;;;26.95;;
79047;SDS011;68680;50.764;6.120;2023-11-21T01:45:57;66.75;;;22.20;;
79047;SDS011;68680;50.764;6.120;2023-11-21T01:48:22;70.22;;;20.90;;
79047;SDS011;68680;50.764;6.120;2023-11-21T01:50:48;75.82;;;24.83;;
79047;SDS011;68680;50.764;6.120;2023-11-21T01:53:14;67.38;;;22.48;;
79047;SDS011;68680;50.764;6.120;2023-11-21T01:55:40;67.40;;;21.58;;
79047;SDS011;68680;50.764;6.120;2023-11-21T01:58:08;93.97;;;26.40;;
79047;SDS011;68680;50.764;6.120;2023-11-21T02:00:35;72.80;;;23.38;;
79047;SDS011;68680;50.764;6.120;2023-11-21T02:03:00;58.38;;;21.02;;
79047;SDS011;68680;50.764;6.120;2023-11-21T02:05:26;80.80;;;24.08;;
79047;SDS011;68680;50.764;6.120;2023-11-21T02:07:52;64.30;;;21.45;;
79047;SDS011;68680;50.764;6.120;2023-11-21T02:10:17;71.30;;;23.65;;
79047;SDS011;68680;50.764;6.120;2023-11-21T02:12:43;68.35;;;21.92;;
79047;SDS011;68680;50.764;6.120;2023-11-21T02:15:10;65.13;;;23.40;;
79047;SDS011;68680;50.764;6.120;2023-11-21T02:17:38;70.97;;;23.92;;
79047;SDS011;68680;50.764;6.120;2023-11-21T02:20:04;76.03;;;24.40;;
79047;SDS011;68680;50.764;6.120;2023-11-21T02:22:31;70.68;;;24.58;;
79047;SDS011;68680;50.764;6.120;2023-11-21T02:25:02;75.87;;;27.43;;
79047;SDS011;68680;50.764;6.120;2023-11-21T02:27:27;77.70;;;24.35;;
79047;SDS011;68680;50.764;6.120;2023-11-21T02:29:53;66.68;;;21.20;;
79047;SDS011;68680;50.764;6.120;2023-11-21T02:32:19;69.78;;;23.38;;
79047;SDS011;68680;50.764;6.120;2023-11-21T02:34:44;72.95;;;23.17;;
79047;SDS011;68680;50.764;6.120;2023-11-21T02:37:10;76.78;;;24.13;;
79047;SDS011;68680;50.764;6.120;2023-11-21T02:39:36;64.18;;;21.58;;
79047;SDS011;68680;50.764;6.120;2023-11-21T02:42:03;75.97;;;24.02;;
79047;SDS011;68680;50.764;6.120;2023-11-21T02:44:28;77.00;;;24.45;;
79047;SDS011;68680;50.764;6.120;2023-11-21T02:46:54;70.40;;;22.50;;
79047;SDS011;68680;50.764;6.120;2023-11-21T02:49:20;71.50;;;23.15;;
79047;SDS011;68680;50.764;6.120;2023-11-21T02:51:45;69.72;;;23.45;;
79047;SDS011;68680;50.764;6.120;2023-11-21T02:54:11;73.72;;;22.30;;
79047;SDS011;68680;50.764;6.120;2023-11-21T02:56:36;63.70;;;21.17;;
79047;SDS011;68680;50.764;6.120;2023-11-21T02:59:03;64.60;;;22.50;;
79047;SDS011;68680;50.764;6.120;2023-11-21T03:01:29;70.28;;;22.77;;
79047;SDS011;68680;50.764;6.120;2023-11-21T03:03:55;129.65;;;27.38;;
79047;SDS011;68680;50.764;6.120;2023-11-21T03:06:20;71.82;;;22.70;;
79047;SDS011;68680;50.764;6.120;2023-11-21T03:08:46;65.22;;;21.92;;
79047;SDS011;68680;50.764;6.120;2023-11-21T03:11:12;74.75;;;24.02;;
79047;SDS011;68680;50.764;6.120;2023-11-21T03:13:38;70.22;;;21.67;;
79047;SDS011;68680;50.764;6.120;2023-11-21T03:16:05;73.25;;;23.27;;
79047;SDS011;68680;50.764;6.120;2023-11-21T03:18:31;71.82;;;23.63;;
79047;SDS011;68680;50.764;6.120;2023-11-21T03:20:57;67.68;;;21.73;;
79047;SDS011;68680;50.764;6.120;2023-11-21T03:23:22;78.55;;;24.05;;
79047;SDS011;68680;50.764;6.120;2023-11-21T03:25:48;69.57;;;21.45;;
79047;SDS011;68680;50.764;6.120;2023-11-21T03:28:14;69.50;;;22.88;;
79047;SDS011;68680;50.764;6.120;2023-11-21T03:30:39;90.40;;;25.95;;
79047;SDS011;68680;50.764;6.120;2023-11-21T03:33:06;71.65;;;22.17;;
79047;SDS011;68680;50.764;6.120;2023-11-21T03:35:32;79.43;;;23.77;;
79047;SDS011;68680;50.764;6.120;2023-11-21T03:37:57;66.35;;;20.95;;
79047;SDS011;68680;50.764;6.120;2023-11-21T03:40:23;72.25;;;22.55;;
79047;SDS011;68680;50.764;6.120;2023-11-21T03:42:48;104.53;;;26.65;;
79047;SDS011;68680;50.764;6.120;2023-11-21T03:45:14;70.10;;;21.65;;
79047;SDS011;68680;50.764;6.120;2023-11-21T03:47:40;78.60;;;21.27;;
79047;SDS011;68680;50.764;6.120;2023-11-21T03:50:08;78.10;;;22.70;;
79047;SDS011;68680;50.764;6.120;2023-11-21T03:52:34;77.95;;;22.98;;
79047;SDS011;68680;50.764;6.120;2023-11-21T03:55:00;68.18;;;20.83;;
79047;SDS011;68680;50.764;6.120;2023-11-21T03:57:25;65.20;;;19.95;;
79047;SDS011;68680;50.764;6.120;2023-11-21T03:59:51;118.25;;;25.80;;
79047;SDS011;68680;50.764;6.120;2023-11-21T04:02:16;54.92;;;18.33;;
79047;SDS011;68680;50.764;6.120;2023-11-21T04:04:42;57.20;;;18.02;;
79047;SDS011;68680;50.764;6.120;2023-11-21T04:07:09;58.17;;;18.70;;
79047;SDS011;68680;50.764;6.120;2023-11-21T04:09:35;92.80;;;21.00;;
79047;SDS011;68680;50.764;6.120;2023-11-21T04:12:00;59.47;;;18.25;;
79047;SDS011;68680;50.764;6.120;2023-11-21T04:14:26;87.97;;;21.00;;
79047;SDS011;68680;50.764;6.120;2023-11-21T04:16:51;57.92;;;17.45;;
79047;SDS011;68680;50.764;6.120;2023-11-21T04:19:17;51.42;;;17.23;;
79047;SDS011;68680;50.764;6.120;2023-11-21T04:21:43;50.65;;;17.02;;
79047;SDS011;68680;50.764;6.120;2023-11-21T04:24:10;54.45;;;16.10;;
79047;SDS011;68680;50.764;6.120;2023-11-21T04:26:35;49.47;;;15.15;;
79047;SDS011;68680;50.764;6.120;2023-11-21T04:29:01;56.45;;;17.42;;
79047;SDS011;68680;50.764;6.120;2023-11-21T04:31:27;44.67;;;15.00;;
79047;SDS011;68680;50.764;6.120;2023-11-21T04:33:52;66.82;;;16.45;;
79047;SDS011;68680;50.764;6.120;2023-11-21T04:36:18;61.58;;;15.80;;
79047;SDS011;68680;50.764;6.120;2023-11-21T04:38:44;46.28;;;15.95;;
79047;SDS011;68680;50.764;6.120;2023-11-21T04:41:11;50.42;;;15.52;;
79047;SDS011;68680;50.764;6.120;2023-11-21T04:43:37;43.00;;;14.50;;
79047;SDS011;68680;50.764;6.120;2023-11-21T04:46:02;45.35;;;15.27;;
79047;SDS011;68680;50.764;6.120;2023-11-21T04:48:28;47.72;;;15.77;;
79047;SDS011;68680;50.764;6.120;2023-11-21T04:50:54;48.35;;;16.10;;
79047;SDS011;68680;50.764;6.120;2023-11-21T04:53:19;52.35;;;15.93;;
79047;SDS011;68680;50.764;6.120;2023-11-21T04:55:45;52.83;;;17.33;;
79047;SDS011;68680;50.764;6.120;2023-11-21T04:58:12;49.95;;;16.20;;
79047;SDS011;68680;50.764;6.120;2023-11-21T05:00:37;71.43;;;19.10;;
79047;SDS011;68680;50.764;6.120;2023-11-21T05:03:03;62.25;;;18.27;;
79047;SDS011;68680;50.764;6.120;2023-11-21T05:05:29;64.13;;;19.48;;
79047;SDS011;68680;50.764;6.120;2023-11-21T05:07:55;61.70;;;17.02;;
79047;SDS011;68680;50.764;6.120;2023-11-21T05:10:20;84.25;;;20.00;;
79047;SDS011;68680;50.764;6.120;2023-11-21T05:12:46;75.00;;;19.63;;
79047;SDS011;68680;50.764;6.120;2023-11-21T05:15:14;72.88;;;17.13;;
79047;SDS011;68680;50.764;6.120;2023-11-21T05:17:40;64.50;;;19.17;;
79047;SDS011;68680;50.764;6.120;2023-11-21T05:20:06;57.05;;;17.65;;
79047;SDS011;68680;50.764;6.120;2023-11-21T05:22:32;62.45;;;18.48;;
79047;SDS011;68680;50.764;6.120;2023-11-21T05:24:58;59.30;;;18.13;;
79047;SDS011;68680;50.764;6.120;2023-11-21T05:27:23;65.85;;;19.90;;
79047;SDS011;68680;50.764;6.120;2023-11-21T05:29:49;61.15;;;18.33;;
79047;SDS011;68680;50.764;6.120;2023-11-21T05:32:16;90.68;;;21.65;;
79047;SDS011;68680;50.764;6.120;2023-11-21T05:34:41;84.85;;;22.38;;
79047;SDS011;68680;50.764;6.120;2023-11-21T05:37:07;63.13;;;21.13;;
79047;SDS011;68680;50.764;6.120;2023-11-21T05:39:32;65.60;;;19.20;;
79047;SDS011;68680;50.764;6.120;2023-11-21T05:41:58;76.72;;;21.00;;
79047;SDS011;68680;50.764;6.120;2023-11-21T05:44:24;77.93;;;23.60;;
79047;SDS011;68680;50.764;6.120;2023-11-21T05:46:49;69.93;;;21.50;;
79047;SDS011;68680;50.764;6.120;2023-11-21T05:49:16;76.70;;;21.58;;
79047;SDS011;68680;50.764;6.120;2023-11-21T05:51:42;67.43;;;21.40;;
79047;SDS011;68680;50.764;6.120;2023-11-21T05:54:07;80.25;;;21.67;;
79047;SDS011;68680;50.764;6.120;2023-11-21T05:56:33;71.97;;;21.58;;
79047;SDS011;68680;50.764;6.120;2023-11-21T05:58:59;85.60;;;24.38;;
79047;SDS011;68680;50.764;6.120;2023-11-21T06:01:25;76.30;;;21.35;;
79047;SDS011;68680;50.764;6.120;2023-11-21T06:03:50;115.55;;;23.88;;
79047;SDS011;68680;50.764;6.120;2023-11-21T06:06:17;64.75;;;20.65;;
79047;SDS011;68680;50.764;6.120;2023-11-21T06:08:43;76.82;;;21.98;;
79047;SDS011;68680;50.764;6.120;2023-11-21T06:11:08;69.60;;;21.75;;
79047;SDS011;68680;50.764;6.120;2023-11-21T06:13:34;72.80;;;21.63;;
79047;SDS011;68680;50.764;6.120;2023-11-21T06:15:59;74.13;;;24.27;;
79047;SDS011;68680;50.764;6.120;2023-11-21T06:18:25;82.65;;;26.33;;
79047;SDS011;68680;50.764;6.120;2023-11-21T06:20:51;80.63;;;28.30;;
79047;SDS011;68680;50.764;6.120;2023-11-21T06:23:18;80.60;;;23.27;;
79047;SDS011;68680;50.764;6.120;2023-11-21T06:25:46;78.20;;;23.27;;
79047;SDS011;68680;50.764;6.120;2023-11-21T06:28:12;78.28;;;24.33;;
79047;SDS011;68680;50.764;6.120;2023-11-21T06:30:37;76.13;;;24.67;;
79047;SDS011;68680;50.764;6.120;2023-11-21T06:33:03;81.25;;;25.05;;
79047;SDS011;68680;50.764;6.120;2023-11-21T06:35:28;80.82;;;23.77;;
79047;SDS011;68680;50.764;6.120;2023-11-21T06:37:54;83.57;;;25.17;;
79047;SDS011;68680;50.764;6.120;2023-11-21T06:40:21;87.20;;;23.95;;
79047;SDS011;68680;50.764;6.120;2023-11-21T06:42:47;92.55;;;24.58;;
79047;SDS011;68680;50.764;6.120;2023-11-21T06:45:13;87.75;;;26.70;;
79047;SDS011;68680;50.764;6.120;2023-11-21T06:47:39;99.97;;;25.48;;
79047;SDS011;68680;50.764;6.120;2023-11-21T06:50:04;83.68;;;25.73;;
79047;SDS011;68680;50.764;6.120;2023-11-21T06:52:30;86.70;;;25.35;;
79047;SDS011;68680;50.764;6.120;2023-11-21T06:54:56;96.85;;;26.70;;
79047;SDS011;68680;50.764;6.120;2023-11-21T06:57:23;95.93;;;27.38;;
79047;SDS011;68680;50.764;6.120;2023-11-21T06:59:49;107.93;;;29.15;;
79047;SDS011;68680;50.764;6.120;2023-11-21T07:02:15;113.25;;;29.83;;
79047;SDS011;68680;50.764;6.120;2023-11-21T07:04:40;96.22;;;27.10;;
79047;SDS011;68680;50.764;6.120;2023-11-21T07:07:06;102.57;;;28.23;;
79047;SDS011;68680;50.764;6.120;2023-11-21T07:09:31;173.05;;;35.13;;
79047;SDS011;68680;50.764;6.120;2023-11-21T07:11:57;93.88;;;27.90;;
79047;SDS011;68680;50.764;6.120;2023-11-21T07:14:24;112.07;;;28.98;;
79047;SDS011;68680;50.764;6.120;2023-11-21T07:16:49;135.15;;;31.10;;
79047;SDS011;68680;50.764;6.120;2023-11-21T07:19:15;98.25;;;29.20;;
79047;SDS011;68680;50.764;6.120;2023-11-21T07:21:41;100.40;;;28.35;;
79047;SDS011;68680;50.764;6.120;2023-11-21T07:24:07;101.65;;;30.05;;
79047;SDS011;68680;50.764;6.120;2023-11-21T07:26:33;95.43;;;28.98;;
79047;SDS011;68680;50.764;6.120;2023-11-21T07:29:00;93.82;;;28.05;;
79047;SDS011;68680;50.764;6.120;2023-11-21T07:31:27;92.75;;;29.23;;
79047;SDS011;68680;50.764;6.120;2023-11-21T07:33:53;102.35;;;27.92;;
79047;SDS011;68680;50.764;6.120;2023-11-21T07:36:18;92.38;;;27.05;;
79047;SDS011;68680;50.764;6.120;2023-11-21T07:38:44;120.50;;;30.13;;
79047;SDS011;68680;50.764;6.120;2023-11-21T07:41:10;87.22;;;28.65;;
79047;SDS011;68680;50.764;6.120;2023-11-21T07:43:36;96.50;;;27.75;;
79047;SDS011;68680;50.764;6.120;2023-11-21T07:46:01;102.75;;;28.60;;
79047;SDS011;68680;50.764;6.120;2023-11-21T07:48:28;93.30;;;28.08;;
79047;SDS011;68680;50.764;6.120;2023-11-21T07:50:54;96.65;;;27.52;;
79047;SDS011;68680;50.764;6.120;2023-11-21T07:53:19;96.25;;;28.10;;
79047;SDS011;68680;50.764;6.120;2023-11-21T07:55:45;93.00;;;27.83;;
79047;SDS011;68680;50.764;6.120;2023-11-21T07:58:11;93.90;;;26.45;;
79047;SDS011;68680;50.764;6.120;2023-11-21T08:00:36;102.78;;;29.98;;
79047;SDS011;68680;50.764;6.120;2023-11-21T08:03:02;91.25;;;27.40;;
79047;SDS011;68680;50.764;6.120;2023-11-21T08:05:29;100.45;;;28.70;;
79047;SDS011;68680;50.764;6.120;2023-11-21T08:07:55;102.15;;;28.17;;
79047;SDS011;68680;50.764;6.120;2023-11-21T08:10:20;101.65;;;30.75;;
79047;SDS011;68680;50.764;6.120;2023-11-21T08:12:46;106.47;;;28.92;;
79047;SDS011;68680;50.764;6.120;2023-11-21T08:15:12;110.18;;;29.80;;
79047;SDS011;68680;50.764;6.120;2023-11-21T08:17:37;109.38;;;29.48;;
79047;SDS011;68680;50.764;6.120;2023-11-21T08:20:03;125.35;;;30.92;;
79047;SDS011;68680;50.764;6.120;2023-11-21T08:22:31;128.13;;;30.50;;
79047;SDS011;68680;50.764;6.120;2023-11-21T08:24:57;137.13;;;33.70;;
79047;SDS011;68680;50.764;6.120;2023-11-21T08:27:22;126.63;;;31.23;;
79047;SDS011;68680;50.764;6.120;2023-11-21T08:29:48;115.72;;;30.02;;
79047;SDS011;68680;50.764;6.120;2023-11-21T08:32:14;137.90;;;33.35;;
79047;SDS011;68680;50.764;6.120;2023-11-21T08:34:39;121.05;;;31.67;;
79047;SDS011;68680;50.764;6.120;2023-11-21T08:37:05;103.68;;;27.98;;
79047;SDS011;68680;50.764;6.120;2023-11-21T08:39:32;133.65;;;32.25;;
79047;SDS011;68680;50.764;6.120;2023-11-21T08:41:57;105.47;;;27.13;;
79047;SDS011;68680;50.764;6.120;2023-11-21T08:44:23;112.85;;;27.02;;
79047;SDS011;68680;50.764;6.120;2023-11-21T08:46:49;92.63;;;27.38;;
79047;SDS011;68680;50.764;6.120;2023-11-21T08:49:14;104.60;;;25.75;;
79047;SDS011;68680;50.764;6.120;2023-11-21T08:51:40;93.80;;;24.65;;
79047;SDS011;68680;50.764;6.120;2023-11-21T08:54:06;97.63;;;26.52;;
79047;SDS011;68680;50.764;6.120;2023-11-21T08:56:33;93.13;;;23.80;;
79047;SDS011;68680;50.764;6.120;2023-11-21T08:58:58;96.40;;;24.23;;
79047;SDS011;68680;50.764;6.120;2023-11-21T09:01:24;100.57;;;24.95;;
79047;SDS011;68680;50.764;6.120;2023-11-21T09:03:50;104.43;;;28.15;;
79047;SDS011;68680;50.764;6.120;2023-11-21T09:06:15;96.13;;;27.35;;
79047;SDS011;68680;50.764;6.120;2023-11-21T09:08:41;93.75;;;25.90;;
79047;SDS011;68680;50.764;6.120;2023-11-21T09:11:06;97.25;;;25.08;;
79047;SDS011;68680;50.764;6.120;2023-11-21T09:13:33;97.05;;;26.83;;
79047;SDS011;68680;50.764;6.120;2023-11-21T09:15:59;100.28;;;25.55;;
79047;SDS011;68680;50.764;6.120;2023-11-21T09:18:24;82.85;;;23.52;;
79047;SDS011;68680;50.764;6.120;2023-11-21T09:20:50;98.00;;;25.70;;
79047;SDS011;68680;50.764;6.120;2023-11-21T09:23:16;93.82;;;25.73;;
79047;SDS011;68680;50.764;6.120;2023-11-21T09:25:41;87.53;;;24.77;;
79047;SDS011;68680;50.764;6.120;2023-11-21T09:28:07;81.68;;;24.85;;
79047;SDS011;68680;50.764;6.120;2023-11-21T09:30:34;81.10;;;22.88;;
79047;SDS011;68680;50.764;6.120;2023-11-21T09:33:00;71.63;;;21.42;;
79047;SDS011;68680;50.764;6.120;2023-11-21T09:35:26;83.22;;;23.65;;
79047;SDS011;68680;50.764;6.120;2023-11-21T09:37:51;77.78;;;22.48;;
79047;SDS011;68680;50.764;6.120;2023-11-21T09:40:17;73.18;;;23.73;;
79047;SDS011;68680;50.764;6.120;2023-11-21T09:42:48;79.90;;;21.65;;
79047;SDS011;68680;50.764;6.120;2023-11-21T09:45:21;67.40;;;20.15;;
79047;SDS011;68680;50.764;6.120;2023-11-21T09:47:51;76.05;;;20.58;;
79047;SDS011;68680;50.764;6.120;2023-11-21T09:50:17;74.15;;;20.00;;
79047;SDS011;68680;50.764;6.120;2023-11-21T09:52:48;72.88;;;22.65;;
79047;SDS011;68680;50.764;6.120;2023-11-21T09:55:34;70.70;;;20.33;;
79047;SDS011;68680;50.764;6.120;2023-11-21T09:58:00;76.68;;;21.17;;
79047;SDS011;68680;50.764;6.120;2023-11-21T10:00:26;65.05;;;19.27;;
79047;SDS011;68680;50.764;6.120;2023-11-21T10:02:53;77.03;;;21.42;;
79047;SDS011;68680;50.764;6.120;2023-11-21T10:05:20;75.07;;;20.77;;
79047;SDS011;68680;50.764;6.120;2023-11-21T10:07:46;80.43;;;20.50;;
79047;SDS011;68680;50.764;6.120;2023-11-21T10:10:13;71.10;;;19.55;;
79047;SDS011;68680;50.764;6.120;2023-11-21T10:12:42;69.85;;;18.60;;
79047;SDS011;68680;50.764;6.120;2023-11-21T10:15:11;70.90;;;20.55;;
79047;SDS011;68680;50.764;6.120;2023-11-21T10:17:39;62.33;;;19.67;;
79047;SDS011;68680;50.764;6.120;2023-11-21T10:20:08;60.10;;;18.00;;
79047;SDS011;68680;50.764;6.120;2023-11-21T10:22:34;71.18;;;19.98;;
79047;SDS011;68680;50.764;6.120;2023-11-21T10:25:00;67.72;;;20.15;;
79047;SDS011;68680;50.764;6.120;2023-11-21T10:27:25;62.42;;;17.58;;
79047;SDS011;68680;50.764;6.120;2023-11-21T10:29:52;69.32;;;18.88;;
79047;SDS011;68680;50.764;6.120;2023-11-21T10:32:17;64.80;;;18.10;;
79047;SDS011;68680;50.764;6.120;2023-11-21T10:34:55;54.00;;;14.95;;
79047;SDS011;68680;50.764;6.120;2023-11-21T10:37:22;48.92;;;15.32;;
79047;SDS011;68680;50.764;6.120;2023-11-21T10:39:48;55.60;;;14.77;;
79047;SDS011;68680;50.764;6.120;2023-11-21T10:42:13;47.20;;;13.95;;
79047;SDS011;68680;50.764;6.120;2023-11-21T10:44:40;45.83;;;14.88;;
79047;SDS011;68680;50.764;6.120;2023-11-21T10:47:08;57.42;;;17.70;;
79047;SDS011;68680;50.764;6.120;2023-11-21T10:49:33;48.65;;;15.73;;
79047;SDS011;68680;50.764;6.120;2023-11-21T10:52:01;48.90;;;14.55;;
79047;SDS011;68680;50.764;6.120;2023-11-21T10:54:29;44.08;;;14.50;;
79047;SDS011;68680;50.764;6.120;2023-11-21T10:56:56;47.53;;;15.00;;
79047;SDS011;68680;50.764;6.120;2023-11-21T10:59:22;49.45;;;16.67;;
79047;SDS011;68680;50.764;6.120;2023-11-21T11:01:48;48.08;;;14.60;;
79047;SDS011;68680;50.764;6.120;2023-11-21T11:04:15;56.58;;;17.80;;
79047;SDS011;68680;50.764;6.120;2023-11-21T11:06:44;55.03;;;15.93;;
79047;SDS011;68680;50.764;6.120;2023-11-21T11:09:11;45.95;;;15.02;;
79047;SDS011;68680;50.764;6.120;2023-11-21T11:11:40;55.92;;;16.17;;
79047;SDS011;68680;50.764;6.120;2023-11-21T11:14:05;50.17;;;14.27;;
79047;SDS011;68680;50.764;6.120;2023-11-21T11:16:32;45.10;;;14.73;;
79047;SDS011;68680;50.764;6.120;2023-11-21T11:18:58;45.83;;;15.55;;
79047;SDS011;68680;50.764;6.120;2023-11-21T11:21:25;49.85;;;16.13;;
79047;SDS011;68680;50.764;6.120;2023-11-21T11:24:05;45.38;;;15.18;;
79047;SDS011;68680;50.764;6.120;2023-11-21T11:26:54;44.25;;;14.30;;
79047;SDS011;68680;50.764;6.120;2023-11-21T11:29:25;47.97;;;15.70;;
79047;SDS011;68680;50.764;6.120;2023-11-21T11:32:00;46.85;;;15.68;;
79047;SDS011;68680;50.764;6.120;2023-11-21T11:34:35;42.15;;;13.63;;
79047;SDS011;68680;50.764;6.120;2023-11-21T11:37:04;37.50;;;12.67;;
79047;SDS011;68680;50.764;6.120;2023-11-21T11:39:34;40.40;;;15.32;;
79047;SDS011;68680;50.764;6.120;2023-11-21T11:42:03;41.47;;;12.02;;
79047;SDS011;68680;50.764;6.120;2023-11-21T11:44:48;41.72;;;10.77;;
79047;SDS011;68680;50.764;6.120;2023-11-21T11:47:16;35.83;;;10.77;;
79047;SDS011;68680;50.764;6.120;2023-11-21T11:49:54;33.47;;;12.20;;
79047;SDS011;68680;50.764;6.120;2023-11-21T11:55:15;29.73;;;11.15;;
79047;SDS011;68680;50.764;6.120;2023-11-21T11:57:43;30.98;;;11.13;;
79047;SDS011;68680;50.764;6.120;2023-11-21T12:00:14;38.03;;;12.10;;
79047;SDS011;68680;50.764;6.120;2023-11-21T12:02:41;35.53;;;11.70;;
79047;SDS011;68680;50.764;6.120;2023-11-21T12:05:09;34.00;;;11.40;;
79047;SDS011;68680;50.764;6.120;2023-11-21T12:07:40;36.03;;;12.32;;
79047;SDS011;68680;50.764;6.120;2023-11-21T12:10:14;34.42;;;11.93;;
79047;SDS011;68680;50.764;6.120;2023-11-21T12:12:47;36.58;;;13.00;;
79047;SDS011;68680;50.764;6.120;2023-11-21T12:15:14;36.45;;;12.18;;
79047;SDS011;68680;50.764;6.120;2023-11-21T12:17:41;39.00;;;12.55;;
79047;SDS011;68680;50.764;6.120;2023-11-21T12:20:07;30.02;;;12.20;;
79047;SDS011;68680;50.764;6.120;2023-11-21T12:22:34;36.70;;;12.38;;
79047;SDS011;68680;50.764;6.120;2023-11-21T12:25:00;33.00;;;11.32;;
79047;SDS011;68680;50.764;6.120;2023-11-21T12:27:26;30.55;;;10.23;;
79047;SDS011;68680;50.764;6.120;2023-11-21T12:29:53;27.02;;;8.90;;
79047;SDS011;68680;50.764;6.120;2023-11-21T12:32:18;25.95;;;7.63;;
79047;SDS011;68680;50.764;6.120;2023-11-21T12:34:44;19.40;;;8.00;;
79047;SDS011;68680;50.764;6.120;2023-11-21T12:37:10;16.85;;;5.18;;
79047;SDS011;68680;50.764;6.120;2023-11-21T12:39:54;12.11;;;4.53;;
79047;SDS011;68680;50.764;6.120;2023-11-21T12:42:19;15.20;;;5.35;;
79047;SDS011;68680;50.764;6.120;2023-11-21T12:44:45;19.27;;;6.43;;
79047;SDS011;68680;50.764;6.120;2023-11-21T12:47:15;18.90;;;7.47;;
79047;SDS011;68680;50.764;6.120;2023-11-21T12:49:42;17.55;;;6.85;;
79047;SDS011;68680;50.764;6.120;2023-11-21T12:52:08;30.83;;;8.00;;
79047;SDS011;68680;50.764;6.120;2023-11-21T12:54:34;29.50;;;9.00;;
79047;SDS011;68680;50.764;6.120;2023-11-21T12:56:59;22.70;;;8.93;;
79047;SDS011;68680;50.764;6.120;2023-11-21T12:59:25;29.05;;;10.35;;
79047;SDS011;68680;50.764;6.120;2023-11-21T13:01:51;25.33;;;9.13;;
79047;SDS011;68680;50.764;6.120;2023-11-21T13:04:18;25.00;;;8.75;;
79047;SDS011;68680;50.764;6.120;2023-11-21T13:06:43;27.80;;;9.10;;
79047;SDS011;68680;50.764;6.120;2023-11-21T13:09:09;82.57;;;34.90;;
79047;SDS011;68680;50.764;6.120;2023-11-21T13:11:34;61.40;;;23.40;;
79047;SDS011;68680;50.764;6.120;2023-11-21T13:14:01;63.47;;;17.55;;
79047;SDS011;68680;50.764;6.120;2023-11-21T13:16:27;21.95;;;7.75;;
79047;SDS011;68680;50.764;6.120;2023-11-21T13:18:53;32.58;;;8.93;;
79047;SDS011;68680;50.764;6.120;2023-11-21T13:21:20;28.67;;;8.98;;
79047;SDS011;68680;50.764;6.120;2023-11-21T13:23:45;29.52;;;9.55;;
79047;SDS011;68680;50.764;6.120;2023-11-21T13:26:11;29.83;;;10.00;;
79047;SDS011;68680;50.764;6.120;2023-11-21T13:28:37;30.33;;;9.70;;
79047;SDS011;68680;50.764;6.120;2023-11-21T13:31:03;33.55;;;10.25;;
79047;SDS011;68680;50.764;6.120;2023-11-21T13:33:30;28.25;;;10.02;;
79047;SDS011;68680;50.764;6.120;2023-11-21T13:35:55;25.05;;;8.50;;
79047;SDS011;68680;50.764;6.120;2023-11-21T13:38:22;28.10;;;8.52;;
79047;SDS011;68680;50.764;6.120;2023-11-21T13:40:48;36.60;;;10.63;;
79047;SDS011;68680;50.764;6.120;2023-11-21T13:43:15;36.60;;;10.48;;
79047;SDS011;68680;50.764;6.120;2023-11-21T13:45:42;24.98;;;8.02;;
79047;SDS011;68680;50.764;6.120;2023-11-21T13:48:10;29.00;;;8.38;;
79047;SDS011;68680;50.764;6.120;2023-11-21T13:50:36;24.83;;;7.05;;
79047;SDS011;68680;50.764;6.120;2023-11-21T13:53:01;24.95;;;7.03;;
79047;SDS011;68680;50.764;6.120;2023-11-21T13:55:29;22.80;;;7.45;;
79047;SDS011;68680;50.764;6.120;2023-11-21T13:57:54;21.52;;;8.90;;
79047;SDS011;68680;50.764;6.120;2023-11-21T14:00:20;20.65;;;7.60;;
79047;SDS011;68680;50.764;6.120;2023-11-21T14:02:46;20.45;;;8.63;;
79047;SDS011;68680;50.764;6.120;2023-11-21T14:05:11;24.73;;;8.85;;
79047;SDS011;68680;50.764;6.120;2023-11-21T14:07:37;25.35;;;8.15;;
79047;SDS011;68680;50.764;6.120;2023-11-21T14:10:03;27.67;;;9.82;;
79047;SDS011;68680;50.764;6.120;2023-11-21T14:12:30;24.48;;;9.15;;
79047;SDS011;68680;50.764;6.120;2023-11-21T14:14:56;32.33;;;9.75;;
79047;SDS011;68680;50.764;6.120;2023-11-21T14:17:21;32.92;;;10.52;;
79047;SDS011;68680;50.764;6.120;2023-11-21T14:19:47;30.95;;;12.82;;